createdAt,value
2022-08-22T00:01:52.822Z,100767.91
2022-08-22T00:02:59.283Z,100769.58
2022-08-22T00:03:09.242Z,100779.81
2022-08-22T00:05:33.803Z,100765.39
2022-08-22T00:09:33.902Z,100766.77
2022-08-22T00:13:27.430Z,100766.03
2022-08-22T00:17:34.122Z,100767.95
2022-08-22T00:21:19.988Z,100767.34
2022-08-22T00:25:26.189Z,100765.05
2022-08-22T00:29:06.522Z,100776.42
2022-08-22T00:32:59.725Z,100776.67
2022-08-22T00:36:48.125Z,100778.44
2022-08-22T00:40:39.759Z,100778.98
2022-08-22T00:44:46.088Z,100784.12
2022-08-22T00:48:37.744Z,100787.98
2022-08-22T00:52:32.451Z,100794.35
2022-08-22T00:56:24.384Z,100794.91
2022-08-22T01:00:12.746Z,100794.16
2022-08-22T01:04:09.787Z,100799.33
2022-08-22T01:08:10.044Z,100807.27
2022-08-22T01:12:15.967Z,100804.84
2022-08-22T01:16:08.031Z,100809.68
2022-08-22T01:19:52.935Z,100816.37
2022-08-22T01:23:56.540Z,100813.41
2022-08-22T01:27:59.667Z,100818.60
2022-08-22T01:31:49.503Z,100826.07
2022-08-22T01:35:22.859Z,100824.05
2022-08-22T01:38:56.908Z,100827.39
2022-08-22T01:42:32.562Z,100827.17
2022-08-22T01:47:03.833Z,100825.85
2022-08-22T01:50:51.497Z,100825.03
2022-08-22T01:54:47.711Z,100823.09
2022-08-22T01:58:11.478Z,100823.59
2022-08-22T02:02:04.840Z,100825.44
2022-08-22T02:09:28.970Z,100818.23
2022-08-22T02:13:00.602Z,100819.36
2022-08-22T02:20:42.855Z,100820.42
2022-08-22T02:24:30.782Z,100823.12
2022-08-22T02:28:57.466Z,100825.55
2022-08-22T02:32:48.763Z,100828.66
2022-08-22T02:41:17.726Z,100836.04
2022-08-22T02:45:06.836Z,100826.23
2022-08-22T02:48:53.039Z,100823.63
2022-08-22T02:52:31.499Z,100819.91
2022-08-22T02:56:28.215Z,100817.98
2022-08-22T03:00:31.384Z,100819.77
2022-08-22T03:04:17.393Z,100817.63
2022-08-22T03:08:10.359Z,100815.88
2022-08-22T03:20:32.091Z,100810.23
2022-08-22T03:24:34.474Z,100803.78
2022-08-22T03:27:57.081Z,100806.20
2022-08-22T03:31:47.885Z,100801.31
2022-08-22T03:35:46.303Z,100794.34
2022-08-22T03:43:54.162Z,100802.80
2022-08-22T03:47:40.209Z,100801.78
2022-08-22T03:51:40.268Z,100805.36
2022-08-22T03:55:39.787Z,100803.38
2022-08-22T03:59:33.291Z,100808.22
2022-08-22T04:03:01.094Z,100812.17
2022-08-22T04:06:56.387Z,100822.60
2022-08-22T04:10:45.904Z,100827.23
2022-08-22T04:14:16.856Z,100834.10
2022-08-22T04:18:04.195Z,100833.73
2022-08-22T04:22:01.956Z,100835.14
2022-08-22T04:25:54.420Z,100833.86
2022-08-22T04:29:46.625Z,100831.91
2022-08-22T04:33:37.034Z,100831.29
2022-08-22T04:37:27.475Z,100835.55
2022-08-22T04:41:13.616Z,100837.09
2022-08-22T04:49:30.774Z,100834.33
2022-08-22T04:53:36.764Z,100837.56
2022-08-22T04:57:23.892Z,100834.67
2022-08-22T05:01:19.653Z,100839.22
2022-08-22T05:05:13.822Z,100837.98
2022-08-22T05:09:12.981Z,100844.31
2022-08-22T05:12:57.258Z,100843.33
2022-08-22T05:16:44.882Z,100842.25
2022-08-22T05:24:40.858Z,100851.95
2022-08-22T05:28:39.950Z,100853.06
2022-08-22T05:32:26.052Z,100850.61
2022-08-22T05:36:04.748Z,100857.91
2022-08-22T05:39:53.413Z,100859.73
2022-08-22T05:43:43.654Z,100863.59
2022-08-22T05:47:34.188Z,100865.88
2022-08-22T05:51:28.820Z,100861.81
2022-08-22T05:55:16.426Z,100862.69
2022-08-22T05:59:18.430Z,100864.71
2022-08-22T06:03:42.019Z,100865.73
2022-08-22T06:07:25.532Z,100870.33
2022-08-22T06:11:22.750Z,100878.64
2022-08-22T06:15:12.531Z,100880.75
2022-08-22T06:18:55.133Z,100879.91
2022-08-22T06:22:42.199Z,100879.11
2022-08-22T06:26:28.543Z,100875.98
2022-08-22T06:30:16.575Z,100875.92
2022-08-22T06:34:03.324Z,100878.46
2022-08-22T06:37:50.848Z,100881.27
2022-08-22T06:41:39.319Z,100883.52
2022-08-22T06:45:33.271Z,100877.21
2022-08-22T06:49:20.877Z,100876.70
2022-08-22T06:53:02.495Z,100877.89
2022-08-22T06:56:53.881Z,100884.64
2022-08-22T07:00:41.677Z,100888.48
2022-08-22T07:04:28.364Z,100892.17
2022-08-22T07:08:16.987Z,100888.98
2022-08-22T07:12:00.623Z,100891.02
2022-08-22T07:15:50.898Z,100893.52
2022-08-22T07:19:38.654Z,100889.85
2022-08-22T07:23:26.368Z,100891.83
2022-08-22T07:27:16.187Z,100893.80
2022-08-22T07:30:56.382Z,100883.17
2022-08-22T07:34:49.269Z,100887.10
2022-08-22T07:38:34.965Z,100896.99
2022-08-22T07:42:25.722Z,100898.67
2022-08-22T07:46:01.708Z,100897.85
2022-08-22T07:49:49.863Z,100894.91
2022-08-22T07:53:34.604Z,100893.87
2022-08-22T07:57:25.072Z,100897.07
2022-08-22T08:01:12.913Z,100890.74
2022-08-22T08:05:01.092Z,100894.64
2022-08-22T08:08:48.973Z,100897.05
2022-08-22T08:12:37.181Z,100898.73
2022-08-22T08:16:25.208Z,100893.72
2022-08-22T08:20:13.063Z,100895.32
2022-08-22T08:24:03.867Z,100899.33
2022-08-22T08:27:51.247Z,100901.85
2022-08-22T08:31:44.990Z,100903.58
2022-08-22T08:35:42.452Z,100901.04
2022-08-22T08:39:52.170Z,100902.52
2022-08-22T08:43:39.480Z,100904.30
2022-08-22T08:47:27.299Z,100904.52
2022-08-22T08:51:28.597Z,100907.31
2022-08-22T08:55:30.187Z,100900.33
2022-08-22T08:59:28.328Z,100897.83
2022-08-22T09:03:33.743Z,100894.84
2022-08-22T09:07:15.631Z,100891.80
2022-08-22T09:11:09.987Z,100885.04
2022-08-22T09:15:02.198Z,100883.96
2022-08-22T09:19:14.670Z,100883.95
2022-08-22T09:23:00.683Z,100887.48
2022-08-22T09:26:57.270Z,100892.23
2022-08-22T09:30:48.399Z,100889.69
2022-08-22T09:35:00.483Z,100889.00
2022-08-22T09:39:03.019Z,100887.10
2022-08-22T09:42:59.142Z,100893.19
2022-08-22T09:46:50.289Z,100891.93
2022-08-22T09:50:44.455Z,100890.81
2022-08-22T09:54:37.574Z,100892.54
2022-08-22T09:58:40.246Z,100891.86
2022-08-22T10:02:36.165Z,100890.67
2022-08-22T10:06:24.456Z,100891.55
2022-08-22T10:10:15.270Z,100893.41
2022-08-22T10:14:13.994Z,100888.21
2022-08-22T10:18:16.201Z,100884.47
2022-08-22T10:21:46.632Z,100887.16
2022-08-22T10:25:26.128Z,100885.02
2022-08-22T10:28:40.378Z,100875.95
2022-08-22T10:32:37.491Z,100882.02
2022-08-22T10:36:37.941Z,100886.36
2022-08-22T10:40:29.947Z,100889.45
2022-08-22T10:44:25.543Z,100890.25
2022-08-22T10:48:16.129Z,100888.91
2022-08-22T10:51:44.810Z,100891.05
2022-08-22T10:55:40.131Z,100889.91
2022-08-22T10:59:30.609Z,100892.35
2022-08-22T11:03:33.649Z,100886.77
2022-08-22T11:07:34.552Z,100888.88
2022-08-22T11:11:23.155Z,100886.53
2022-08-22T11:15:28.448Z,100890.00
2022-08-22T11:19:15.039Z,100893.36
2022-08-22T11:23:24.820Z,100890.36
2022-08-22T11:27:25.365Z,100892.73
2022-08-22T11:31:27.126Z,100898.13
2022-08-22T11:35:31.136Z,100898.04
2022-08-22T11:39:50.057Z,100897.34
2022-08-22T11:43:47.987Z,100896.21
2022-08-22T11:47:30.573Z,100896.44
2022-08-22T11:51:25.572Z,100899.41
2022-08-22T11:55:33.227Z,100905.11
2022-08-22T11:59:52.827Z,100911.08
2022-08-22T12:03:58.188Z,100909.03
2022-08-22T12:07:56.368Z,100909.24
2022-08-22T12:11:38.802Z,100911.66
2022-08-22T12:15:22.431Z,100910.41
2022-08-22T12:19:22.973Z,100908.02
2022-08-22T12:23:09.257Z,100903.88
2022-08-22T12:26:48.008Z,100903.74
2022-08-22T12:30:51.745Z,100903.52
2022-08-22T12:34:48.700Z,100904.27
2022-08-22T12:38:28.995Z,100906.02
2022-08-22T12:41:54.199Z,100895.39
2022-08-22T12:45:52.435Z,100897.66
2022-08-22T12:49:22.270Z,100894.12
2022-08-22T12:53:18.134Z,100891.27
2022-08-22T12:57:23.800Z,100884.53
2022-08-22T13:01:23.344Z,100880.82
2022-08-22T13:05:03.151Z,100878.63
2022-08-22T13:09:02.927Z,100884.65
2022-08-22T13:12:59.243Z,100883.93
2022-08-22T13:16:49.034Z,100875.59
2022-08-22T13:20:36.344Z,100874.05
2022-08-22T13:24:38.817Z,100872.71
2022-08-22T13:28:29.149Z,100867.48
2022-08-22T13:32:33.381Z,100871.09
2022-08-22T13:36:26.856Z,100872.17
2022-08-22T13:40:15.416Z,100858.83
2022-08-22T13:44:03.639Z,100859.47
2022-08-22T13:47:56.728Z,100854.27
2022-08-22T13:51:51.763Z,100856.04
2022-08-22T13:55:50.913Z,100856.17
2022-08-22T13:59:50.918Z,100859.88
2022-08-22T14:03:48.682Z,100866.90
2022-08-22T14:07:40.211Z,100866.06
2022-08-22T14:11:33.044Z,100857.55
2022-08-22T14:15:32.212Z,100851.98
2022-08-22T14:19:51.474Z,100847.27
2022-08-22T14:23:55.879Z,100849.00
2022-08-22T14:27:30.067Z,100850.86
2022-08-22T14:31:33.569Z,100847.65
2022-08-22T14:35:21.669Z,100847.35
2022-08-22T14:39:27.274Z,100849.56
2022-08-22T14:43:25.985Z,100854.16
2022-08-22T14:47:55.290Z,100846.13
2022-08-22T14:56:18.177Z,100846.42
2022-08-22T15:00:14.029Z,100835.20
2022-08-22T15:04:11.524Z,100837.45
2022-08-22T15:07:58.091Z,100838.58
2022-08-22T15:11:49.878Z,100842.05
2022-08-22T15:15:52.879Z,100840.60
2022-08-22T15:19:35.113Z,100841.74
2022-08-22T15:23:23.886Z,100841.88
2022-08-22T15:27:21.925Z,100843.22
2022-08-22T15:31:12.739Z,100842.64
2022-08-22T15:35:12.639Z,100847.61
2022-08-22T15:39:06.787Z,100852.64
2022-08-22T15:42:47.885Z,100844.80
2022-08-22T15:46:21.341Z,100841.45
2022-08-22T15:50:21.121Z,100837.91
2022-08-22T15:54:24.510Z,100832.49
2022-08-22T15:58:14.868Z,100830.30
2022-08-22T16:02:04.857Z,100831.45
2022-08-22T16:05:23.989Z,100833.13
2022-08-22T16:09:11.796Z,100832.52
2022-08-22T16:12:46.049Z,100823.95
2022-08-22T16:16:54.274Z,100824.34
2022-08-22T16:29:06.861Z,100820.98
2022-08-22T16:32:58.432Z,100824.48
2022-08-22T16:36:52.378Z,100825.73
2022-08-22T16:44:03.217Z,100832.65
2022-08-22T16:47:57.818Z,100833.60
2022-08-22T16:51:40.657Z,100837.89
2022-08-22T16:55:34.929Z,100835.43
2022-08-22T16:59:43.303Z,100825.09
2022-08-22T17:03:24.357Z,100825.81
2022-08-22T17:07:28.713Z,100820.02
2022-08-22T17:11:48.249Z,100831.25
2022-08-22T17:15:22.222Z,100826.84
2022-08-22T17:19:01.698Z,100824.48
2022-08-22T17:22:57.070Z,100815.17
2022-08-22T17:26:48.206Z,100819.64
2022-08-22T17:30:07.529Z,100815.10
2022-08-22T17:33:02.827Z,100831.36
2022-08-22T17:36:35.767Z,100838.55
2022-08-22T17:45:05.821Z,100833.14
2022-08-22T17:49:45.301Z,100840.53
2022-08-22T17:53:16.472Z,100844.27
2022-08-22T17:57:14.014Z,100842.07
2022-08-22T18:01:11.070Z,100839.23
2022-08-22T18:09:14.334Z,100843.47
2022-08-22T18:13:08.994Z,100850.98
2022-08-22T18:21:00.474Z,100853.40
2022-08-22T18:33:58.752Z,100858.11
2022-08-22T18:37:35.436Z,100854.38
2022-08-22T18:41:11.238Z,100860.17
2022-08-22T18:44:42.483Z,100859.58
2022-08-22T18:49:11.627Z,100861.38
2022-08-22T18:56:12.347Z,100859.74
2022-08-22T18:59:35.349Z,100860.20
2022-08-22T19:07:57.585Z,100873.43
2022-08-22T19:11:50.664Z,100880.23
2022-08-22T19:15:50.653Z,100878.71
2022-08-22T19:19:45.746Z,100877.29
2022-08-22T19:23:32.813Z,100873.70
2022-08-22T19:27:30.864Z,100872.80
2022-08-22T19:31:53.403Z,100878.63
2022-08-22T19:35:23.270Z,100875.47
2022-08-22T19:43:48.680Z,100883.30
2022-08-22T19:47:16.984Z,100884.27
2022-08-22T19:51:28.021Z,100876.77
2022-08-22T20:02:31.514Z,100884.88
2022-08-22T20:06:53.628Z,100883.63
2022-08-22T20:11:03.542Z,100878.75
2022-08-22T20:14:55.527Z,100875.23
2022-08-22T20:22:46.893Z,100866.67
2022-08-22T20:31:19.070Z,100867.77
2022-08-22T20:35:09.780Z,100863.88
2022-08-22T20:39:00.202Z,100859.77
2022-08-22T20:42:51.026Z,100863.15
2022-08-22T20:46:48.169Z,100861.27
2022-08-22T20:50:44.660Z,100850.13
2022-08-22T20:54:30.564Z,100850.44
2022-08-22T20:58:25.043Z,100849.02
2022-08-22T21:02:13.917Z,100846.46
2022-08-22T21:06:14.033Z,100849.27
2022-08-22T21:10:11.061Z,100853.04
2022-08-22T21:14:07.238Z,100858.24
2022-08-22T21:17:57.462Z,100853.10
2022-08-22T21:21:48.097Z,100854.51
2022-08-22T21:25:38.135Z,100850.54
2022-08-22T21:29:44.365Z,100849.59
2022-08-22T21:33:38.242Z,100842.31
2022-08-22T21:37:31.897Z,100838.52
2022-08-22T21:41:22.714Z,100830.80
2022-08-22T21:45:19.857Z,100830.86
2022-08-22T21:49:16.442Z,100831.05
2022-08-22T21:53:10.155Z,100829.77
2022-08-22T21:57:11.741Z,100837.45
2022-08-22T22:00:57.549Z,100835.63
2022-08-22T22:04:47.221Z,100831.66
2022-08-22T22:08:35.348Z,100829.85
2022-08-22T22:12:23.523Z,100826.63
2022-08-22T22:16:22.287Z,100820.52
2022-08-22T22:20:16.667Z,100815.05
2022-08-22T22:24:04.335Z,100808.98
2022-08-22T22:27:51.929Z,100802.22
2022-08-22T22:31:41.476Z,100800.32
2022-08-22T22:35:29.494Z,100802.35
2022-08-22T22:39:18.812Z,100798.17
2022-08-22T22:43:08.408Z,100800.29
2022-08-22T22:46:58.262Z,100799.98
2022-08-22T22:50:47.295Z,100806.11
2022-08-22T22:54:36.814Z,100814.71
2022-08-22T22:58:30.514Z,100812.54
2022-08-22T23:02:18.279Z,100808.06
2022-08-22T23:06:06.893Z,100801.64
2022-08-22T23:09:56.222Z,100804.55
2022-08-22T23:13:49.431Z,100815.95
2022-08-22T23:17:38.176Z,100814.94
2022-08-22T23:21:26.140Z,100815.46
2022-08-22T23:25:31.549Z,100808.65
2022-08-22T23:29:20.355Z,100806.77
2022-08-22T23:33:08.029Z,100799.23
2022-08-22T23:36:56.097Z,100804.89
2022-08-22T23:40:46.069Z,100804.34
2022-08-22T23:44:33.722Z,100804.02
2022-08-22T23:48:24.026Z,100808.42
2022-08-22T23:52:12.073Z,100810.18
2022-08-22T23:56:01.390Z,100810.55
2022-08-22T23:59:57.636Z,100811.92
